createdAt,value
2018-09-15T00:00:57.731Z,99.90
2018-09-15T00:03:26.743Z,99.90
2018-09-15T00:05:55.413Z,99.90
2018-09-15T00:08:24.047Z,99.90
2018-09-15T00:10:52.699Z,99.90
2018-09-15T00:13:22.374Z,99.90
2018-09-15T00:15:51.303Z,99.90
2018-09-15T00:18:19.983Z,99.90
2018-09-15T00:20:48.611Z,99.90
2018-09-15T00:23:17.271Z,99.90
2018-09-15T00:25:45.911Z,99.90
2018-09-15T00:28:14.559Z,99.90
2018-09-15T00:30:43.222Z,99.90
2018-09-15T00:33:11.942Z,99.90
2018-09-15T00:35:40.577Z,99.90
2018-09-15T00:38:09.246Z,99.90
2018-09-15T00:40:37.870Z,99.90
2018-09-15T00:43:06.554Z,99.90
2018-09-15T00:45:35.215Z,99.90
2018-09-15T00:48:03.862Z,99.90
2018-09-15T00:50:32.617Z,99.90
2018-09-15T00:53:01.711Z,99.90
2018-09-15T00:55:31.457Z,99.90
2018-09-15T00:58:00.088Z,99.90
2018-09-15T01:00:28.714Z,99.90
2018-09-15T01:02:57.428Z,99.90
2018-09-15T01:05:26.047Z,99.90
2018-09-15T01:07:54.671Z,99.90
2018-09-15T01:10:23.300Z,99.90
2018-09-15T01:12:51.921Z,99.90
2018-09-15T01:15:20.670Z,99.90
2018-09-15T01:17:49.310Z,99.90
2018-09-15T01:20:17.946Z,99.90
2018-09-15T01:22:46.569Z,99.90
2018-09-15T01:25:15.206Z,99.90
2018-09-15T01:27:43.895Z,99.90
2018-09-15T01:30:12.538Z,99.90
2018-09-15T01:32:41.182Z,99.90
2018-09-15T01:35:09.798Z,99.90
2018-09-15T01:37:38.558Z,99.90
2018-09-15T01:40:07.213Z,99.90
2018-09-15T01:42:35.834Z,99.90
2018-09-15T01:45:04.583Z,99.90
2018-09-15T01:47:33.187Z,99.90
2018-09-15T01:50:01.921Z,99.90
2018-09-15T01:52:30.601Z,99.90
2018-09-15T01:54:59.222Z,99.90
2018-09-15T01:57:28.171Z,99.90
2018-09-15T01:59:56.806Z,99.90
2018-09-15T02:02:25.541Z,99.90
2018-09-15T02:04:54.169Z,99.90
2018-09-15T02:07:22.845Z,99.90
2018-09-15T02:09:51.473Z,99.90
2018-09-15T02:12:20.105Z,99.90
2018-09-15T02:14:48.969Z,99.90
2018-09-15T02:17:17.604Z,99.90
2018-09-15T02:19:46.231Z,99.90
2018-09-15T02:22:14.934Z,99.90
2018-09-15T02:24:43.558Z,99.90
2018-09-15T02:27:12.214Z,99.90
2018-09-15T02:29:40.849Z,99.90
2018-09-15T02:32:09.492Z,99.90
2018-09-15T02:34:38.134Z,99.90
2018-09-15T02:37:06.821Z,99.90
2018-09-15T02:39:35.481Z,99.90
2018-09-15T02:42:04.175Z,99.90
2018-09-15T02:44:39.302Z,99.90
2018-09-15T02:47:07.926Z,99.90
2018-09-15T02:49:36.598Z,99.90
2018-09-15T02:52:05.281Z,99.90
2018-09-15T02:54:33.927Z,99.90
2018-09-15T02:57:02.606Z,99.90
2018-09-15T02:59:31.279Z,99.90
2018-09-15T03:01:59.985Z,99.90
2018-09-15T03:04:28.656Z,99.90
2018-09-15T03:06:57.318Z,99.90
2018-09-15T03:09:25.995Z,99.90
2018-09-15T03:11:54.648Z,99.90
2018-09-15T03:14:23.267Z,99.90
2018-09-15T03:16:52.010Z,99.90
2018-09-15T03:19:20.686Z,99.90
2018-09-15T03:21:49.297Z,99.90
2018-09-15T03:24:17.949Z,99.90
2018-09-15T03:26:46.590Z,99.90
2018-09-15T03:29:15.252Z,99.90
2018-09-15T03:31:43.896Z,99.90
2018-09-15T03:34:12.512Z,99.90
2018-09-15T03:36:41.151Z,99.90
2018-09-15T03:39:11.230Z,99.90
2018-09-15T03:41:40.069Z,99.90
2018-09-15T03:44:08.595Z,99.90
2018-09-15T03:46:37.215Z,99.90
2018-09-15T03:49:05.997Z,99.90
2018-09-15T03:51:34.654Z,99.90
2018-09-15T03:54:03.397Z,99.90
2018-09-15T03:56:32.069Z,99.90
2018-09-15T03:59:00.704Z,99.90
2018-09-15T04:01:29.357Z,99.90
2018-09-15T04:03:58.001Z,99.90
2018-09-15T04:06:26.750Z,99.90
2018-09-15T04:08:55.412Z,99.90
2018-09-15T04:11:24.057Z,99.90
2018-09-15T04:13:52.712Z,99.90
2018-09-15T04:16:21.312Z,99.90
2018-09-15T04:18:50.112Z,99.90
2018-09-15T04:21:18.743Z,99.90
2018-09-15T04:23:47.390Z,99.90
2018-09-15T04:26:16.025Z,99.90
2018-09-15T04:28:44.824Z,99.90
2018-09-15T04:31:13.603Z,99.90
2018-09-15T04:33:42.389Z,99.90
2018-09-15T04:36:11.128Z,99.90
2018-09-15T04:38:40.166Z,99.90
2018-09-15T04:41:08.936Z,99.90
2018-09-15T04:43:37.634Z,99.90
2018-09-15T04:46:06.687Z,99.90
2018-09-15T04:48:35.342Z,99.90
2018-09-15T04:51:04.016Z,99.90
2018-09-15T04:53:32.630Z,99.90
2018-09-15T04:56:01.473Z,99.90
2018-09-15T04:58:30.093Z,99.90
2018-09-15T05:00:58.826Z,99.90
2018-09-15T05:03:27.548Z,99.90
2018-09-15T05:05:56.169Z,99.90
2018-09-15T05:08:24.846Z,99.90
2018-09-15T05:10:53.466Z,99.90
2018-09-15T05:13:22.114Z,99.90
2018-09-15T05:15:51.044Z,99.90
2018-09-15T05:18:19.661Z,99.90
2018-09-15T05:20:48.290Z,99.90
2018-09-15T05:23:16.938Z,99.90
2018-09-15T05:25:45.548Z,99.90
2018-09-15T05:28:14.193Z,99.90
2018-09-15T05:30:42.832Z,99.90
2018-09-15T05:33:11.472Z,99.90
2018-09-15T05:35:40.085Z,99.90
2018-09-15T05:38:08.765Z,99.90
2018-09-15T05:40:37.382Z,99.90
2018-09-15T05:43:06.074Z,99.90
2018-09-15T05:45:34.692Z,99.90
2018-09-15T05:48:03.430Z,99.90
2018-09-15T05:50:32.057Z,99.90
2018-09-15T05:53:00.865Z,99.90
2018-09-15T05:55:29.652Z,99.90
2018-09-15T05:57:58.293Z,99.90
2018-09-15T06:00:26.996Z,99.90
2018-09-15T06:02:55.600Z,99.90
2018-09-15T06:05:24.209Z,99.90
2018-09-15T06:07:52.858Z,99.90
2018-09-15T06:10:21.495Z,99.90
2018-09-15T06:12:50.256Z,99.90
2018-09-15T06:15:18.884Z,99.90
2018-09-15T06:17:47.595Z,99.90
2018-09-15T06:20:16.237Z,99.90
2018-09-15T06:22:44.873Z,99.90
2018-09-15T06:25:13.780Z,99.90
2018-09-15T06:27:42.397Z,99.90
2018-09-15T06:30:11.097Z,99.90
2018-09-15T06:32:39.737Z,99.90
2018-09-15T06:35:08.369Z,99.90
2018-09-15T06:37:37.041Z,99.90
2018-09-15T06:40:05.720Z,99.90
2018-09-15T06:42:34.354Z,99.90
2018-09-15T06:45:03.034Z,99.90
2018-09-15T06:47:31.657Z,99.90
2018-09-15T06:50:00.403Z,99.90
2018-09-15T06:52:29.052Z,99.90
2018-09-15T06:54:57.677Z,99.90
2018-09-15T06:57:26.339Z,99.90
2018-09-15T06:59:54.959Z,99.90
2018-09-15T07:02:23.680Z,99.90
2018-09-15T07:04:52.284Z,99.90
2018-09-15T07:07:20.910Z,99.90
2018-09-15T07:09:49.570Z,99.90
2018-09-15T07:12:18.191Z,99.90
2018-09-15T07:14:46.840Z,99.90
2018-09-15T07:17:15.483Z,99.90
2018-09-15T07:19:44.149Z,99.90
2018-09-15T07:22:12.787Z,99.90
2018-09-15T07:24:41.421Z,99.90
2018-09-15T07:27:10.222Z,99.90
2018-09-15T07:29:38.833Z,99.90
2018-09-15T07:32:07.501Z,99.90
2018-09-15T07:34:36.141Z,99.90
2018-09-15T07:37:04.761Z,99.90
2018-09-15T07:39:33.534Z,99.90
2018-09-15T07:42:02.413Z,99.90
2018-09-15T07:44:31.029Z,99.90
2018-09-15T07:46:59.671Z,99.90
2018-09-15T07:49:28.280Z,98.60
2018-09-15T07:51:57.021Z,99.00
2018-09-15T07:54:25.654Z,98.70
2018-09-15T07:56:54.252Z,97.40
2018-09-15T07:59:22.881Z,96.40
2018-09-15T08:01:51.500Z,95.00
2018-09-15T08:04:20.180Z,94.50
2018-09-15T08:06:48.792Z,94.20
2018-09-15T08:09:17.415Z,94.40
2018-09-15T08:11:46.102Z,94.20
2018-09-15T08:14:14.725Z,94.70
2018-09-15T08:16:43.424Z,94.00
2018-09-15T08:19:12.069Z,93.90
2018-09-15T08:21:40.685Z,92.70
2018-09-15T08:24:09.321Z,93.40
2018-09-15T08:26:37.936Z,93.70
2018-09-15T08:29:06.645Z,92.60
2018-09-15T08:31:35.261Z,93.10
2018-09-15T08:34:10.717Z,92.70
2018-09-15T08:36:39.349Z,92.30
2018-09-15T08:39:08.983Z,92.50
2018-09-15T08:41:37.605Z,91.80
2018-09-15T08:44:12.969Z,90.70
2018-09-15T08:46:41.616Z,90.80
2018-09-15T08:49:10.240Z,91.30
2018-09-15T08:51:38.888Z,91.40
2018-09-15T08:54:07.572Z,91.20
2018-09-15T08:56:36.182Z,91.60
2018-09-15T08:59:11.786Z,91.10
2018-09-15T09:01:40.436Z,90.40
2018-09-15T09:04:09.082Z,91.30
2018-09-15T09:06:37.783Z,90.60
2018-09-15T09:09:09.038Z,90.20
2018-09-15T09:11:37.803Z,89.80
2018-09-15T09:14:06.435Z,89.30
2018-09-15T09:16:35.076Z,89.10
2018-09-15T09:19:03.779Z,88.30
2018-09-15T09:21:32.793Z,88.60
2018-09-15T09:24:01.499Z,88.90
2018-09-15T09:26:30.202Z,86.60
2018-09-15T09:28:58.811Z,84.80
2018-09-15T09:31:27.463Z,84.00
2018-09-15T09:33:56.112Z,83.20
2018-09-15T09:36:24.793Z,82.80
2018-09-15T09:38:53.425Z,84.40
2018-09-15T09:41:22.095Z,81.70
2018-09-15T09:43:50.775Z,79.90
2018-09-15T09:46:19.421Z,80.40
2018-09-15T09:48:48.046Z,80.00
2018-09-15T09:51:16.683Z,80.30
2018-09-15T09:53:45.322Z,81.20
2018-09-15T09:56:14.058Z,81.50
2018-09-15T09:58:42.681Z,78.50
2018-09-15T10:01:16.673Z,76.80
2018-09-15T10:03:45.369Z,76.70
2018-09-15T10:06:13.989Z,76.80
2018-09-15T10:08:42.630Z,76.00
2018-09-15T10:11:11.256Z,74.40
2018-09-15T10:13:39.909Z,74.70
2018-09-15T10:16:08.569Z,74.60
2018-09-15T10:18:37.340Z,74.50
2018-09-15T10:21:06.051Z,74.60
2018-09-15T10:23:34.653Z,71.70
2018-09-15T10:26:03.338Z,71.90
2018-09-15T10:28:31.954Z,71.70
2018-09-15T10:31:00.850Z,68.90
2018-09-15T10:33:29.491Z,68.80
2018-09-15T10:35:58.116Z,69.30
2018-09-15T10:38:26.803Z,69.30
2018-09-15T10:40:55.420Z,70.60
2018-09-15T10:43:24.050Z,69.90
2018-09-15T10:45:52.712Z,69.10
2018-09-15T10:48:21.336Z,70.00
2018-09-15T10:50:50.007Z,69.30
2018-09-15T10:53:18.744Z,67.50
2018-09-15T10:55:47.381Z,66.40
2018-09-15T10:58:15.996Z,66.80
2018-09-15T11:00:44.687Z,67.40
2018-09-15T11:03:13.291Z,67.50
2018-09-15T11:05:41.959Z,69.00
2018-09-15T11:08:10.626Z,69.70
2018-09-15T11:10:39.234Z,68.90
2018-09-15T11:13:08.188Z,69.40
2018-09-15T11:15:36.798Z,67.90
2018-09-15T11:18:05.566Z,67.00
2018-09-15T11:20:34.277Z,66.20
2018-09-15T11:23:02.914Z,63.40
2018-09-15T11:25:31.644Z,63.10
2018-09-15T11:28:00.261Z,62.90
2018-09-15T11:30:28.858Z,62.70
2018-09-15T11:32:57.509Z,63.60
2018-09-15T11:35:26.160Z,64.70
2018-09-15T11:37:54.813Z,64.70
2018-09-15T11:40:23.447Z,66.00
2018-09-15T11:42:52.105Z,65.60
2018-09-15T11:45:20.765Z,64.60
2018-09-15T11:47:49.434Z,64.90
2018-09-15T11:50:18.213Z,64.20
2018-09-15T11:52:47.349Z,63.60
2018-09-15T11:55:16.101Z,64.00
2018-09-15T11:57:44.719Z,62.70
2018-09-15T12:00:13.449Z,61.00
2018-09-15T12:02:42.071Z,59.80
2018-09-15T12:05:10.701Z,59.70
2018-09-15T12:07:39.387Z,58.40
2018-09-15T12:10:08.009Z,58.80
2018-09-15T12:12:36.626Z,59.20
2018-09-15T12:15:05.411Z,59.90
2018-09-15T12:17:34.152Z,59.60
2018-09-15T12:20:03.112Z,60.00
2018-09-15T12:22:31.737Z,59.90
2018-09-15T12:25:00.425Z,60.60
2018-09-15T12:27:29.057Z,61.10
2018-09-15T12:29:57.769Z,60.00
2018-09-15T12:32:26.417Z,59.30
2018-09-15T12:34:55.040Z,58.80
2018-09-15T12:37:23.694Z,56.90
2018-09-15T12:39:52.354Z,56.00
2018-09-15T12:42:20.985Z,55.20
2018-09-15T12:44:49.614Z,54.60
2018-09-15T12:47:18.334Z,54.90
2018-09-15T12:49:46.953Z,53.70
2018-09-15T12:52:15.633Z,52.70
2018-09-15T12:54:44.322Z,51.90
2018-09-15T12:57:12.937Z,53.00
2018-09-15T12:59:41.674Z,50.30
2018-09-15T13:02:10.929Z,50.00
2018-09-15T13:04:39.534Z,49.60
2018-09-15T13:07:08.212Z,48.70
2018-09-15T13:09:36.858Z,48.80
2018-09-15T13:12:05.812Z,48.80
2018-09-15T13:14:34.513Z,48.80
2018-09-15T13:17:03.232Z,48.60
2018-09-15T13:19:31.891Z,48.80
2018-09-15T13:22:00.559Z,46.60
2018-09-15T13:24:29.255Z,46.20
2018-09-15T13:26:57.910Z,46.50
2018-09-15T13:29:26.601Z,46.60
2018-09-15T13:31:55.553Z,47.40
2018-09-15T13:34:24.242Z,47.50
2018-09-15T13:36:52.885Z,47.10
2018-09-15T13:39:21.572Z,47.10
2018-09-15T13:41:50.261Z,47.70
2018-09-15T13:44:18.930Z,47.70
2018-09-15T13:46:47.642Z,48.70
2018-09-15T13:49:16.260Z,49.10
2018-09-15T13:51:44.928Z,49.90
2018-09-15T13:54:13.606Z,49.50
2018-09-15T13:56:42.360Z,49.00
2018-09-15T13:59:11.078Z,47.70
2018-09-15T14:01:39.781Z,47.00
2018-09-15T14:04:08.497Z,47.30
2018-09-15T14:06:37.168Z,46.00
2018-09-15T14:09:07.918Z,46.00
2018-09-15T14:11:36.670Z,46.00
2018-09-15T14:14:05.711Z,45.30
2018-09-15T14:16:34.467Z,45.00
2018-09-15T14:19:03.293Z,45.00
2018-09-15T14:21:31.963Z,44.80
2018-09-15T14:24:00.627Z,44.20
2018-09-15T14:26:29.378Z,44.30
2018-09-15T14:28:58.022Z,44.30
2018-09-15T14:31:26.674Z,44.10
2018-09-15T14:33:55.368Z,44.40
2018-09-15T14:36:24.014Z,44.20
2018-09-15T14:38:52.654Z,44.30
2018-09-15T14:41:21.306Z,44.70
2018-09-15T14:43:50.021Z,44.10
2018-09-15T14:46:18.896Z,43.80
2018-09-15T14:48:47.589Z,43.20
2018-09-15T14:51:16.275Z,43.40
2018-09-15T14:53:45.023Z,43.30
2018-09-15T14:56:13.711Z,43.30
2018-09-15T14:58:42.483Z,43.00
2018-09-15T15:01:11.122Z,43.80
2018-09-15T15:03:39.805Z,44.00
2018-09-15T15:06:08.519Z,43.90
2018-09-15T15:08:37.130Z,42.80
2018-09-15T15:11:05.910Z,42.30
2018-09-15T15:13:34.567Z,42.60
2018-09-15T15:16:03.216Z,43.10
2018-09-15T15:18:31.887Z,42.70
2018-09-15T15:21:00.549Z,42.60
2018-09-15T15:23:29.263Z,43.00
2018-09-15T15:25:57.948Z,42.50
2018-09-15T15:28:26.565Z,42.00
2018-09-15T15:30:55.210Z,41.70
2018-09-15T15:33:23.870Z,42.20
2018-09-15T15:35:52.605Z,42.10
2018-09-15T15:38:21.255Z,42.90
2018-09-15T15:40:49.921Z,43.00
2018-09-15T15:43:18.655Z,44.00
2018-09-15T15:45:47.315Z,42.90
2018-09-15T15:48:16.067Z,43.40
2018-09-15T15:50:44.701Z,43.40
2018-09-15T15:53:13.324Z,44.00
2018-09-15T15:55:42.108Z,44.40
2018-09-15T15:58:10.739Z,44.30
2018-09-15T16:00:39.421Z,44.20
2018-09-15T16:03:08.156Z,44.10
2018-09-15T16:05:36.808Z,44.00
2018-09-15T16:08:05.478Z,44.30
2018-09-15T16:10:34.130Z,44.30
2018-09-15T16:13:03.053Z,44.30
2018-09-15T16:15:31.715Z,44.30
2018-09-15T16:18:00.396Z,44.20
2018-09-15T16:20:29.056Z,44.20
2018-09-15T16:23:01.188Z,44.40
2018-09-15T16:25:30.374Z,45.20
2018-09-15T16:27:58.989Z,44.80
2018-09-15T16:30:27.628Z,45.60
2018-09-15T16:32:56.264Z,45.30
2018-09-15T16:35:24.877Z,45.30
2018-09-15T16:38:00.304Z,45.40
2018-09-15T16:40:28.968Z,45.40
2018-09-15T16:42:57.581Z,45.40
2018-09-15T16:45:26.246Z,45.30
2018-09-15T16:47:54.898Z,45.40
2018-09-15T16:50:23.642Z,45.80
2018-09-15T16:52:52.338Z,45.90
2018-09-15T16:55:20.985Z,46.30
2018-09-15T16:57:49.619Z,46.80
2018-09-15T17:00:18.245Z,47.80
2018-09-15T17:02:46.930Z,47.50
2018-09-15T17:05:15.553Z,48.30
2018-09-15T17:07:44.216Z,48.60
2018-09-15T17:10:13.130Z,49.00
2018-09-15T17:12:41.689Z,49.80
2018-09-15T17:15:10.459Z,49.80
2018-09-15T17:17:39.101Z,49.90
2018-09-15T17:20:07.837Z,50.10
2018-09-15T17:22:36.548Z,50.00
2018-09-15T17:25:05.138Z,50.60
2018-09-15T17:27:33.813Z,50.90
2018-09-15T17:30:02.440Z,51.40
2018-09-15T17:32:31.076Z,51.80
2018-09-15T17:34:59.814Z,52.30
2018-09-15T17:37:28.441Z,52.50
2018-09-15T17:39:57.252Z,52.80
2018-09-15T17:42:25.822Z,53.20
2018-09-15T17:44:54.434Z,53.60
2018-09-15T17:47:23.115Z,53.80
2018-09-15T17:49:51.799Z,54.10
2018-09-15T17:52:20.710Z,54.50
2018-09-15T17:54:49.494Z,54.60
2018-09-15T17:57:18.009Z,54.90
2018-09-15T17:59:46.653Z,55.20
2018-09-15T18:02:15.297Z,55.40
2018-09-15T18:04:44.324Z,55.80
2018-09-15T18:07:12.953Z,56.40
2018-09-15T18:09:41.620Z,57.00
2018-09-15T18:12:10.275Z,57.80
2018-09-15T18:14:39.068Z,58.60
2018-09-15T18:17:07.990Z,59.00
2018-09-15T18:19:36.605Z,59.60
2018-09-15T18:22:05.259Z,60.50
2018-09-15T18:24:33.894Z,61.00
2018-09-15T18:27:02.509Z,62.20
2018-09-15T18:29:31.234Z,62.90
2018-09-15T18:31:59.833Z,63.60
2018-09-15T18:34:28.484Z,64.40
2018-09-15T18:36:57.301Z,65.60
2018-09-15T18:39:25.790Z,66.30
2018-09-15T18:41:54.540Z,67.70
2018-09-15T18:44:23.153Z,68.70
2018-09-15T18:46:51.801Z,69.50
2018-09-15T18:49:20.425Z,70.90
2018-09-15T18:51:49.068Z,71.40
2018-09-15T18:54:17.894Z,73.10
2018-09-15T18:56:46.541Z,74.70
2018-09-15T18:59:15.179Z,76.40
2018-09-15T19:01:43.874Z,77.40
2018-09-15T19:04:12.465Z,79.10
2018-09-15T19:06:41.106Z,81.40
2018-09-15T19:09:11.107Z,83.40
2018-09-15T19:11:40.290Z,86.80
2018-09-15T19:14:09.009Z,88.90
2018-09-15T19:16:37.727Z,90.70
2018-09-15T19:19:06.687Z,91.90
2018-09-15T19:21:35.345Z,93.50
2018-09-15T19:24:03.962Z,95.50
2018-09-15T19:26:32.635Z,97.30
2018-09-15T19:29:01.310Z,98.10
2018-09-15T19:31:30.068Z,98.70
2018-09-15T19:33:58.702Z,98.90
2018-09-15T19:36:27.366Z,99.90
2018-09-15T19:38:56.141Z,99.80
2018-09-15T19:41:24.734Z,99.90
2018-09-15T19:43:53.697Z,99.90
2018-09-15T19:46:22.334Z,99.90
2018-09-15T19:48:50.952Z,99.90
2018-09-15T19:51:19.660Z,99.90
2018-09-15T19:53:48.293Z,99.90
2018-09-15T19:56:17.083Z,99.90
2018-09-15T19:58:45.765Z,99.90
2018-09-15T20:01:14.393Z,99.90
2018-09-15T20:03:43.041Z,99.90
2018-09-15T20:06:11.802Z,99.90
2018-09-15T20:08:40.397Z,99.90
2018-09-15T20:11:09.061Z,99.90
2018-09-15T20:13:37.737Z,99.90
2018-09-15T20:16:05.162Z,99.90
2018-09-15T20:18:32.557Z,99.90
2018-09-15T20:21:00.079Z,99.90
2018-09-15T20:23:28.729Z,99.90
2018-09-15T20:25:57.325Z,99.90
2018-09-15T20:28:25.998Z,99.90
2018-09-15T20:30:54.661Z,99.90
2018-09-15T20:33:23.425Z,99.90
2018-09-15T20:35:52.008Z,99.90
2018-09-15T20:38:20.661Z,99.90
2018-09-15T20:40:49.300Z,99.90
2018-09-15T20:43:17.934Z,99.90
2018-09-15T20:45:46.728Z,99.90
2018-09-15T20:48:15.392Z,99.90
2018-09-15T20:50:44.062Z,99.90
2018-09-15T20:53:12.697Z,99.90
2018-09-15T20:55:41.305Z,99.90
2018-09-15T20:58:09.954Z,99.90
2018-09-15T21:00:38.557Z,99.90
2018-09-15T21:03:07.178Z,99.90
2018-09-15T21:05:35.823Z,99.90
2018-09-15T21:08:04.462Z,99.90
2018-09-15T21:10:33.093Z,99.90
2018-09-15T21:13:01.722Z,99.90
2018-09-15T21:15:30.357Z,99.90
2018-09-15T21:17:59.877Z,99.90
2018-09-15T21:20:28.497Z,99.90
2018-09-15T21:22:57.189Z,99.90
2018-09-15T21:25:25.901Z,99.90
2018-09-15T21:27:54.595Z,99.90
2018-09-15T21:30:23.339Z,99.90
2018-09-15T21:32:51.949Z,99.90
2018-09-15T21:35:20.577Z,99.90
2018-09-15T21:37:49.234Z,99.90
2018-09-15T21:40:17.858Z,99.90
2018-09-15T21:42:46.512Z,99.90
2018-09-15T21:45:15.172Z,99.90
2018-09-15T21:47:43.802Z,99.90
2018-09-15T21:50:12.434Z,99.90
2018-09-15T21:52:41.057Z,99.90
2018-09-15T21:55:09.725Z,99.90
2018-09-15T21:57:38.354Z,99.90
2018-09-15T22:00:09.709Z,99.90
2018-09-15T22:02:38.342Z,99.90
2018-09-15T22:05:07.054Z,99.90
2018-09-15T22:07:35.674Z,99.90
2018-09-15T22:10:04.421Z,99.90
2018-09-15T22:12:33.077Z,99.90
2018-09-15T22:15:01.805Z,99.90
2018-09-15T22:17:30.421Z,99.90
2018-09-15T22:19:59.039Z,99.90
2018-09-15T22:22:27.712Z,99.90
2018-09-15T22:24:56.329Z,99.90
2018-09-15T22:27:25.276Z,99.90
2018-09-15T22:29:53.898Z,99.90
2018-09-15T22:32:22.516Z,99.90
2018-09-15T22:34:51.169Z,99.90
2018-09-15T22:37:19.806Z,99.90
2018-09-15T22:39:48.582Z,99.90
2018-09-15T22:42:17.265Z,99.90
2018-09-15T22:44:45.905Z,99.90
2018-09-15T22:47:14.546Z,99.90
2018-09-15T22:49:43.154Z,99.90
2018-09-15T22:52:11.809Z,99.90
2018-09-15T22:54:40.459Z,99.90
2018-09-15T22:57:09.070Z,99.90
2018-09-15T22:59:37.725Z,99.90
2018-09-15T23:02:06.510Z,99.90
2018-09-15T23:04:35.162Z,99.90
2018-09-15T23:07:03.854Z,99.90
2018-09-15T23:09:32.477Z,99.90
2018-09-15T23:12:01.185Z,99.90
2018-09-15T23:14:29.965Z,99.90
2018-09-15T23:16:58.598Z,99.90
2018-09-15T23:19:27.221Z,99.90
2018-09-15T23:21:55.857Z,99.90
2018-09-15T23:24:24.462Z,99.90
2018-09-15T23:26:53.177Z,99.90
2018-09-15T23:29:21.817Z,99.90
2018-09-15T23:31:50.422Z,99.90
2018-09-15T23:34:21.955Z,99.90
2018-09-15T23:36:50.741Z,99.90
2018-09-15T23:39:19.469Z,99.90
2018-09-15T23:41:48.120Z,99.90
2018-09-15T23:44:16.717Z,99.90
2018-09-15T23:46:45.355Z,99.90
2018-09-15T23:49:13.977Z,99.90
2018-09-15T23:51:42.725Z,99.90
2018-09-15T23:54:11.359Z,99.90
2018-09-15T23:56:39.954Z,99.90
2018-09-15T23:59:08.702Z,99.90
